Time;durP1;ratioP1;P1;durP2;ratioP2;P2;SDS_P1;SDS_P2;PMS_P1;PMS_P2;Temp;Humidity;BMP_temperature;BMP_pressure;BME280_temperature;BME280_humidity;BME280_pressure;Samples;Min_cycle;Max_cycle;Signal;HPM_P1;HPM_P2
2022/10/13 00:00:42;;;;;;;;;;;;;;;10.92;100.00;101867.66;5035304;28;19920;-42
2022/10/13 00:03:08;;;;;;;;;;;;;;;10.93;100.00;101863.97;5038642;28;20110;-43
2022/10/13 00:05:33;;;;;;;;;;;;;;;10.95;100.00;101864.72;5027957;28;19925;-41
2022/10/13 00:07:59;;;;;;;;;;;;;;;10.95;100.00;101868.22;5039324;28;19964;-42
2022/10/13 00:10:25;;;;;;;;;;;;;;;10.98;100.00;101859.06;5038227;28;20798;-43
2022/10/13 00:12:50;;;;;;;;;;;;;;;10.97;100.00;101850.22;5033749;28;20287;-41
2022/10/13 00:15:15;;;;;;;;;;;;;;;10.98;100.00;101856.38;5038823;28;19912;-42
2022/10/13 00:17:41;;;;;;;;;;;;;;;10.99;100.00;101847.41;5035594;28;19924;-45
2022/10/13 00:20:07;;;;;;;;;;;;;;;11.00;100.00;101846.44;5036509;28;19920;-41
2022/10/13 00:22:32;;;;;;;;;;;;;;;11.00;100.00;101836.56;5039047;28;20003;-41
2022/10/13 00:24:57;;;;;;;;;;;;;;;11.01;100.00;101837.41;5037196;28;20593;-40
2022/10/13 00:27:23;;;;;;;;;;;;;;;11.04;100.00;101828.28;5021083;28;19917;-41
2022/10/13 00:29:48;;;;;;;;;;;;;;;11.01;100.00;101829.38;5033416;28;19917;-41
2022/10/13 00:32:13;;;;;;;;;;;;;;;11.01;100.00;101835.59;5038166;28;19913;-43
2022/10/13 00:34:39;;;;;;;;;;;;;;;11.01;100.00;101837.41;5020860;28;20315;-43
2022/10/13 00:37:04;;;;;;;;;;;;;;;11.02;100.00;101839.09;5037763;28;19924;-42
2022/10/13 00:39:30;;;;;;;;;;;;;;;11.02;100.00;101842.63;5038472;28;19921;-41
2022/10/13 00:41:56;;;;;;;;;;;;;;;11.04;100.00;101836.28;5037229;28;19913;-42
2022/10/13 00:44:40;;;;;;;;;;;;;;;11.06;100.00;101845.03;5018944;28;19913;-43
2022/10/13 00:47:05;;;;;;;;;;;;;;;11.09;100.00;101845.56;5037615;28;19920;-40
2022/10/13 00:49:30;;;;;;;;;;;;;;;11.12;100.00;101841.78;5038053;28;19950;-40
2022/10/13 00:51:55;;;;;;;;;;;;;;;11.13;100.00;101839.00;5036564;28;20100;-42
2022/10/13 00:54:23;;;;;;;;;;;;;;;11.13;100.00;101835.44;5038465;28;19912;-41
2022/10/13 00:56:49;;;;;;;;;;;;;;;11.14;100.00;101837.97;5037046;28;19917;-42
2022/10/13 00:59:21;;;;;;;;;;;;;;;11.10;100.00;101827.69;5035591;28;21010;-41
2022/10/13 01:01:47;;;;;;;;;;;;;;;11.10;100.00;101833.91;5036114;28;19917;-41
2022/10/13 01:04:12;;;;;;;;;;;;;;;11.09;100.00;101831.38;5038006;28;19920;-42
2022/10/13 01:06:38;;;;;;;;;;;;;;;11.09;100.00;101840.22;5037779;28;20412;-43
2022/10/13 01:09:03;;;;;;;;;;;;;;;11.11;100.00;101840.94;5038376;28;19935;-40
2022/10/13 01:11:37;;;;;;;;;;;;;;;11.09;100.00;101828.69;5037025;28;19912;-41
2022/10/13 01:14:05;;;;;;;;;;;;;;;11.08;100.00;101824.31;5036793;28;20395;-43
2022/10/13 01:16:39;;;;;;;;;;;;;;;11.07;100.00;101831.50;5037769;28;19927;-40
2022/10/13 01:19:30;;;;;;;;;;;;;;;11.05;100.00;101828.13;5038434;28;20027;-42
2022/10/13 01:22:08;;;;;;;;;;;;;;;11.06;100.00;101827.13;5015587;28;20376;-41
2022/10/13 01:24:39;;;;;;;;;;;;;;;11.06;100.00;101828.97;5031019;28;19933;-40
2022/10/13 01:27:11;;;;;;;;;;;;;;;11.06;100.00;101834.31;5037716;28;20027;-42
2022/10/13 01:29:55;;;;;;;;;;;;;;;11.06;100.00;101828.97;5037276;28;20395;-41
2022/10/13 01:32:28;;;;;;;;;;;;;;;11.07;100.00;101833.34;5026752;28;19921;-41
2022/10/13 01:35:16;;;;;;;;;;;;;;;11.08;100.00;101829.69;5033702;28;20414;-42
2022/10/13 01:37:47;;;;;;;;;;;;;;;11.06;100.00;101829.81;5037344;28;19925;-42
2022/10/13 01:40:22;;;;;;;;;;;;;;;11.05;100.00;101822.78;5036067;28;19916;-40
2022/10/13 01:42:47;;;;;;;;;;;;;;;11.06;100.00;101824.47;5037245;28;20435;-41
2022/10/13 01:45:14;;;;;;;;;;;;;;;11.08;100.00;101827.84;5037087;28;20003;-43
2022/10/13 01:47:40;;;;;;;;;;;;;;;11.09;100.00;101824.19;5037018;28;20024;-41
2022/10/13 01:50:06;;;;;;;;;;;;;;;11.09;100.00;101818.84;5037705;28;19981;-40
2022/10/13 01:52:34;;;;;;;;;;;;;;;11.08;100.00;101819.81;5032313;28;19940;-41
2022/10/13 01:55:03;;;;;;;;;;;;;;;11.10;100.00;101822.34;5030326;28;20419;-41
2022/10/13 01:57:33;;;;;;;;;;;;;;;11.09;100.00;101816.16;5036727;28;19920;-41
2022/10/13 02:00:08;;;;;;;;;;;;;;;11.11;100.00;101816.88;5036687;28;19932;-41
2022/10/13 02:02:38;;;;;;;;;;;;;;;11.13;100.00;101812.25;5018504;28;19999;-42
2022/10/13 02:05:19;;;;;;;;;;;;;;;11.16;100.00;101805.75;5036316;28;19939;-42
2022/10/13 02:07:47;;;;;;;;;;;;;;;11.13;100.00;101801.56;5036440;28;19963;-40
2022/10/13 02:10:25;;;;;;;;;;;;;;;11.15;100.00;101802.25;5036341;28;19923;-40
2022/10/13 02:13:04;;;;;;;;;;;;;;;11.16;100.00;101803.09;5036461;28;20427;-41
2022/10/13 02:15:40;;;;;;;;;;;;;;;11.18;100.00;101798.44;5036372;28;19913;-41
2022/10/13 02:18:06;;;;;;;;;;;;;;;11.18;100.00;101807.31;5037519;28;19943;-41
2022/10/13 02:20:32;;;;;;;;;;;;;;;11.19;100.00;101789.44;5037759;28;20621;-39
2022/10/13 02:23:00;;;;;;;;;;;;;;;11.18;100.00;101783.25;5037352;28;20271;-42
2022/10/13 02:25:26;;;;;;;;;;;;;;;11.19;100.00;101774.22;5035749;28;19916;-40
2022/10/13 02:27:52;;;;;;;;;;;;;;;11.18;100.00;101772.56;5034293;28;19962;-41
2022/10/13 02:30:25;;;;;;;;;;;;;;;11.16;100.00;101779.84;5037095;28;19916;-41
2022/10/13 02:32:50;;;;;;;;;;;;;;;11.15;100.00;101780.84;5036327;28;20367;-40
2022/10/13 02:35:15;;;;;;;;;;;;;;;11.13;100.00;101769.47;5036184;28;19972;-44
2022/10/13 02:37:40;;;;;;;;;;;;;;;11.14;100.00;101773.81;5023141;28;19940;-42
2022/10/13 02:40:06;;;;;;;;;;;;;;;11.14;100.00;101771.13;5035723;28;19995;-41
2022/10/13 02:42:31;;;;;;;;;;;;;;;11.15;100.00;101778.19;5034339;28;19967;-40
2022/10/13 02:44:56;;;;;;;;;;;;;;;11.16;100.00;101773.69;5036157;28;19948;-42
2022/10/13 02:47:22;;;;;;;;;;;;;;;11.18;100.00;101777.03;5036676;28;20008;-42
2022/10/13 02:49:47;;;;;;;;;;;;;;;11.18;100.00;101769.03;5040252;28;19921;-42
2022/10/13 02:52:12;;;;;;;;;;;;;;;11.18;100.00;101767.22;5022342;28;19960;-41
2022/10/13 02:54:37;;;;;;;;;;;;;;;11.17;100.00;101764.69;5039275;28;20008;-41
2022/10/13 02:57:02;;;;;;;;;;;;;;;11.18;100.00;101761.88;5034974;28;19920;-40
2022/10/13 02:59:27;;;;;;;;;;;;;;;11.18;100.00;101763.69;5039872;28;19916;-43
2022/10/13 03:01:53;;;;;;;;;;;;;;;11.18;100.00;101759.19;5039593;28;19921;-41
2022/10/13 03:04:18;;;;;;;;;;;;;;;11.19;100.00;101757.34;5040730;28;20003;-43
2022/10/13 03:06:43;;;;;;;;;;;;;;;11.19;100.00;101754.69;5040157;28;20300;-41
2022/10/13 03:09:09;;;;;;;;;;;;;;;11.20;100.00;101761.69;5040009;28;19920;-41
2022/10/13 03:11:34;;;;;;;;;;;;;;;11.23;100.00;101752.56;5039687;28;20268;-40
2022/10/13 03:13:59;;;;;;;;;;;;;;;11.26;100.00;101744.25;5020807;28;20133;-41
2022/10/13 03:16:24;;;;;;;;;;;;;;;11.27;100.00;101748.59;5039803;28;20375;-42
2022/10/13 03:18:50;;;;;;;;;;;;;;;11.27;100.00;101743.25;5040476;28;19916;-39
2022/10/13 03:21:15;;;;;;;;;;;;;;;11.28;100.00;101745.78;5040408;28;20388;-42
2022/10/13 03:23:40;;;;;;;;;;;;;;;11.28;100.00;101739.59;5037579;28;19957;-44
2022/10/13 03:26:05;;;;;;;;;;;;;;;11.31;100.00;101752.69;5035311;28;20538;-44
2022/10/13 03:28:31;;;;;;;;;;;;;;;11.30;100.00;101743.84;5031720;28;19917;-42
2022/10/13 03:31:06;;;;;;;;;;;;;;;11.32;100.00;101754.38;5020535;28;19943;-41
2022/10/13 03:33:31;;;;;;;;;;;;;;;11.35;100.00;101749.59;5039645;28;20023;-40
2022/10/13 03:35:58;;;;;;;;;;;;;;;11.37;100.00;101747.63;5039104;28;20020;-40
2022/10/13 03:38:23;;;;;;;;;;;;;;;11.39;100.00;101745.63;5039728;28;19913;-41
2022/10/13 03:40:48;;;;;;;;;;;;;;;11.41;100.00;101731.28;5038994;28;20393;-42
2022/10/13 03:43:13;;;;;;;;;;;;;;;11.42;100.00;101728.44;5038570;28;19917;-41
2022/10/13 03:45:39;;;;;;;;;;;;;;;11.42;100.00;101720.41;5039158;28;20072;-41
2022/10/13 03:48:04;;;;;;;;;;;;;;;11.46;100.00;101731.69;5040441;28;19967;-39
2022/10/13 03:50:29;;;;;;;;;;;;;;;11.46;100.00;101718.31;5039529;28;20007;-41
2022/10/13 03:52:54;;;;;;;;;;;;;;;11.48;100.00;101724.34;5039122;28;20462;-40
2022/10/13 03:55:20;;;;;;;;;;;;;;;11.53;100.00;101728.28;5038615;28;19913;-42
2022/10/13 03:57:45;;;;;;;;;;;;;;;11.52;100.00;101715.91;5039184;28;20007;-39
2022/10/13 04:00:10;;;;;;;;;;;;;;;11.51;100.00;101713.38;5039168;28;20388;-41
2022/10/13 04:02:36;;;;;;;;;;;;;;;11.51;100.00;101724.91;5039401;28;19912;-40
2022/10/13 04:05:01;;;;;;;;;;;;;;;11.51;100.00;101716.03;5027227;28;19924;-42
2022/10/13 04:07:26;;;;;;;;;;;;;;;11.49;100.00;101716.19;5035953;28;20334;-40
2022/10/13 04:09:51;;;;;;;;;;;;;;;11.50;100.00;101712.50;5030372;28;19917;-40
2022/10/13 04:12:16;;;;;;;;;;;;;;;11.50;100.00;101704.47;5038482;28;19923;-41
2022/10/13 04:14:42;;;;;;;;;;;;;;;11.47;100.00;101706.59;5039108;28;19923;-41
2022/10/13 04:17:07;;;;;;;;;;;;;;;11.46;100.00;101718.31;5037455;28;20375;-40
2022/10/13 04:19:32;;;;;;;;;;;;;;;11.46;100.00;101707.63;5034944;28;20235;-42
2022/10/13 04:21:58;;;;;;;;;;;;;;;11.45;100.00;101703.25;5037358;28;19917;-40
2022/10/13 04:24:23;;;;;;;;;;;;;;;11.43;100.00;101711.41;5037971;28;19917;-41
2022/10/13 04:26:48;;;;;;;;;;;;;;;11.42;100.00;101717.72;5038905;28;19927;-41
2022/10/13 04:29:13;;;;;;;;;;;;;;;11.41;100.00;101712.56;5038293;28;19916;-42
2022/10/13 04:31:41;;;;;;;;;;;;;;;11.39;100.00;101699.34;5037645;28;20027;-41
2022/10/13 04:34:07;;;;;;;;;;;;;;;11.37;100.00;101696.81;5039371;28;20184;-40
2022/10/13 04:36:32;;;;;;;;;;;;;;;11.37;100.00;101691.44;5038849;28;19944;-40
2022/10/13 04:38:57;;;;;;;;;;;;;;;11.37;100.00;101688.78;5038210;28;19913;-41
2022/10/13 04:41:23;;;;;;;;;;;;;;;11.35;100.00;101690.75;5036070;28;19924;-41
2022/10/13 04:43:49;;;;;;;;;;;;;;;11.32;100.00;101693.72;5038226;28;19939;-44
2022/10/13 04:46:16;;;;;;;;;;;;;;;11.31;100.00;101693.84;5037907;28;20560;-42
2022/10/13 04:48:41;;;;;;;;;;;;;;;11.29;100.00;101706.53;5000965;28;20237;-41
2022/10/13 04:51:11;;;;;;;;;;;;;;;11.28;100.00;101702.16;5030974;28;19927;-40
2022/10/13 04:53:37;;;;;;;;;;;;;;;11.28;100.00;101707.50;5035080;28;19921;-41
2022/10/13 04:56:03;;;;;;;;;;;;;;;11.27;100.00;101697.78;5037935;28;19920;-41
2022/10/13 04:58:29;;;;;;;;;;;;;;;11.27;100.00;101711.16;5037346;28;20422;-40
2022/10/13 05:00:54;;;;;;;;;;;;;;;11.27;100.00;101708.50;5037114;28;19919;-40
2022/10/13 05:03:20;;;;;;;;;;;;;;;11.26;100.00;101706.81;5037660;28;19920;-41
2022/10/13 05:05:45;;;;;;;;;;;;;;;11.19;100.00;101698.53;5037971;28;19920;-40
2022/10/13 05:08:10;;;;;;;;;;;;;;;11.20;100.00;101701.06;5037280;28;20006;-41
2022/10/13 05:10:35;;;;;;;;;;;;;;;11.20;100.00;101678.81;5034609;28;19916;-40
2022/10/13 05:13:01;;;;;;;;;;;;;;;11.18;100.00;101676.31;5030334;28;19925;-40
2022/10/13 05:15:26;;;;;;;;;;;;;;;11.16;100.00;101682.78;5033441;28;19917;-41
2022/10/13 05:17:51;;;;;;;;;;;;;;;11.16;100.00;101680.09;5029633;28;19923;-41
2022/10/13 05:20:17;;;;;;;;;;;;;;;11.17;100.00;101679.13;5037877;28;19935;-41
2022/10/13 05:22:42;;;;;;;;;;;;;;;11.17;100.00;101693.31;5025303;28;20008;-42
2022/10/13 05:25:07;;;;;;;;;;;;;;;11.16;100.00;101685.44;5021601;28;19913;-40
2022/10/13 05:27:33;;;;;;;;;;;;;;;11.17;100.00;101684.47;5035904;28;19988;-42
2022/10/13 05:29:58;;;;;;;;;;;;;;;11.17;100.00;101696.00;5018260;28;20086;-41
2022/10/13 05:32:23;;;;;;;;;;;;;;;11.17;100.00;101700.50;5036974;28;20029;-41
2022/10/13 05:34:48;;;;;;;;;;;;;;;11.16;100.00;101701.50;5037707;28;19917;-41
2022/10/13 05:37:15;;;;;;;;;;;;;;;11.18;100.00;101700.38;5037190;28;19916;-42
2022/10/13 05:39:41;;;;;;;;;;;;;;;11.20;100.00;101700.19;5036658;28;19916;-42
2022/10/13 05:42:06;;;;;;;;;;;;;;;11.20;100.00;101703.75;5036815;28;19928;-40
2022/10/13 05:44:31;;;;;;;;;;;;;;;11.24;100.00;101698.09;5035857;28;19982;-43
2022/10/13 05:46:56;;;;;;;;;;;;;;;11.24;100.00;101696.28;5015684;28;19912;-42
2022/10/13 05:49:22;;;;;;;;;;;;;;;11.26;100.00;101690.78;5037044;28;19953;-42
2022/10/13 05:51:49;;;;;;;;;;;;;;;11.25;100.00;101692.59;5036997;28;20410;-40
2022/10/13 05:54:41;;;;;;;;;;;;;;;11.26;100.00;101685.44;5033175;28;20413;-43
2022/10/13 05:57:18;;;;;;;;;;;;;;;11.27;100.00;101695.97;5016433;28;20733;-43
2022/10/13 05:59:50;;;;;;;;;;;;;;;11.28;100.00;101686.97;5017570;28;20402;-46
2022/10/13 06:02:16;;;;;;;;;;;;;;;11.28;100.00;101686.13;5036057;28;20413;-44
2022/10/13 06:04:45;;;;;;;;;;;;;;;11.29;100.00;101685.97;5037068;28;20368;-43
2022/10/13 06:07:10;;;;;;;;;;;;;;;11.30;100.00;101679.66;5036314;28;19921;-41
2022/10/13 06:09:39;;;;;;;;;;;;;;;11.31;100.00;101678.66;5036422;28;20372;-39
2022/10/13 06:12:05;;;;;;;;;;;;;;;11.31;100.00;101688.50;5035897;28;19963;-40
2022/10/13 06:14:30;;;;;;;;;;;;;;;11.31;100.00;101684.00;5034727;28;19921;-41
2022/10/13 06:16:55;;;;;;;;;;;;;;;11.30;100.00;101682.31;5033900;28;19916;-39
2022/10/13 06:19:20;;;;;;;;;;;;;;;11.30;100.00;101671.63;5037370;28;19963;-40
2022/10/13 06:21:46;;;;;;;;;;;;;;;11.32;100.00;101682.16;5034034;28;19959;-41
2022/10/13 06:24:11;;;;;;;;;;;;;;;11.31;100.00;101675.13;5039695;28;19924;-41
2022/10/13 06:26:36;;;;;;;;;;;;;;;11.32;100.00;101680.34;5041172;28;20439;-41
2022/10/13 06:29:01;;;;;;;;;;;;;;;11.32;100.00;101676.81;5026978;28;20588;-40
2022/10/13 06:31:27;;;;;;;;;;;;;;;11.32;100.00;101683.03;5038464;28;19913;-41
2022/10/13 06:33:52;;;;;;;;;;;;;;;11.37;100.00;101682.56;5030649;28;19943;-40
2022/10/13 06:36:17;;;;;;;;;;;;;;;11.36;100.00;101680.91;4992075;28;19913;-40
2022/10/13 06:38:42;;;;;;;;;;;;;;;11.38;100.00;101668.22;5040349;28;20383;-39
2022/10/13 06:41:08;;;;;;;;;;;;;;;11.39;100.00;101673.41;5040976;28;19920;-40
2022/10/13 06:43:33;;;;;;;;;;;;;;;11.41;100.00;101665.25;5022571;28;19920;-41
2022/10/13 06:45:59;;;;;;;;;;;;;;;11.43;100.00;101665.94;5030380;28;19953;-41
2022/10/13 06:48:25;;;;;;;;;;;;;;;11.45;100.00;101671.97;5024820;28;20186;-40
2022/10/13 06:50:50;;;;;;;;;;;;;;;11.46;100.00;101664.81;5035340;28;19913;-42
2022/10/13 06:53:15;;;;;;;;;;;;;;;11.46;100.00;101662.97;5040739;28;19956;-40
2022/10/13 06:55:42;;;;;;;;;;;;;;;11.45;100.00;101669.31;5039103;28;19921;-40
2022/10/13 06:58:07;;;;;;;;;;;;;;;11.46;100.00;101659.47;5039659;28;19924;-41
2022/10/13 07:00:32;;;;;;;;;;;;;;;11.46;100.00;101657.63;5026935;28;19997;-39
2022/10/13 07:02:58;;;;;;;;;;;;;;;11.49;100.00;101664.50;5039010;28;19923;-40
2022/10/13 07:05:23;;;;;;;;;;;;;;;11.50;100.00;101666.19;5033201;28;19939;-46
2022/10/13 07:07:50;;;;;;;;;;;;;;;11.52;100.00;101672.25;5040638;28;20336;-41
2022/10/13 07:10:15;;;;;;;;;;;;;;;11.54;100.00;101672.94;5021400;28;20404;-40
2022/10/13 07:12:41;;;;;;;;;;;;;;;11.55;100.00;101672.78;5022433;28;19916;-40
2022/10/13 07:15:06;;;;;;;;;;;;;;;11.59;100.00;101659.94;5040154;28;20012;-43
2022/10/13 07:17:31;;;;;;;;;;;;;;;11.63;100.00;101666.72;5039471;28;20062;-41
2022/10/13 07:19:57;;;;;;;;;;;;;;;11.66;100.00;101668.22;5040225;28;20011;-41
2022/10/13 07:22:22;;;;;;;;;;;;;;;11.68;100.00;101669.78;5040694;28;19913;-41
2022/10/13 07:24:47;;;;;;;;;;;;;;;11.70;100.00;101673.16;5039391;28;19912;-42
2022/10/13 07:27:12;;;;;;;;;;;;;;;11.71;100.00;101669.50;5021371;28;19938;-42
2022/10/13 07:29:37;;;;;;;;;;;;;;;11.73;100.00;101674.69;5037030;28;19924;-41
2022/10/13 07:32:03;;;;;;;;;;;;;;;11.74;100.00;101677.22;5033687;28;20342;-43
2022/10/13 07:34:28;;;;;;;;;;;;;;;11.74;100.00;101679.03;5039222;28;19919;-42
2022/10/13 07:36:53;;;;;;;;;;;;;;;11.75;100.00;101672.72;5039022;28;19916;-41
2022/10/13 07:39:18;;;;;;;;;;;;;;;11.75;100.00;101676.22;5033091;28;20329;-44
2022/10/13 07:41:43;;;;;;;;;;;;;;;11.76;100.00;101677.06;5014645;28;19913;-44
2022/10/13 07:44:09;;;;;;;;;;;;;;;11.79;100.00;101668.72;5028391;28;19914;-41
2022/10/13 07:46:34;;;;;;;;;;;;;;;11.81;100.00;101676.63;5038057;28;19921;-41
2022/10/13 07:48:59;;;;;;;;;;;;;;;11.84;100.00;101663.78;5039882;28;19966;-42
2022/10/13 07:51:24;;;;;;;;;;;;;;;11.88;100.00;101670.53;5039754;28;19952;-40
2022/10/13 07:53:50;;;;;;;;;;;;;;;11.95;100.00;101668.13;5038339;28;19923;-44
2022/10/13 07:56:15;;;;;;;;;;;;;;;11.99;100.00;101672.19;5039662;28;19967;-42
2022/10/13 07:58:43;;;;;;;;;;;;;;;12.05;100.00;101670.72;5038265;28;19920;-42
2022/10/13 08:01:08;;;;;;;;;;;;;;;12.12;100.00;101672.66;5038340;28;19917;-43
2022/10/13 08:03:34;;;;;;;;;;;;;;;12.20;100.00;101676.41;5035453;28;20475;-41
2022/10/13 08:06:00;;;;;;;;;;;;;;;12.24;100.00;101673.28;5039044;28;19974;-42
2022/10/13 08:08:26;;;;;;;;;;;;;;;12.29;100.00;101670.16;5038403;28;19927;-41
2022/10/13 08:10:51;;;;;;;;;;;;;;;12.31;100.00;101674.38;5039093;28;20268;-42
2022/10/13 08:13:16;;;;;;;;;;;;;;;12.31;100.00;101674.38;5037424;28;19916;-40
2022/10/13 08:15:42;;;;;;;;;;;;;;;12.28;100.00;101663.13;5036490;28;19939;-41
2022/10/13 08:18:08;;;;;;;;;;;;;;;12.26;100.00;101659.75;5037478;28;20437;-41
2022/10/13 08:20:34;;;;;;;;;;;;;;;12.27;100.00;101662.28;5019974;28;20299;-41
2022/10/13 08:22:59;;;;;;;;;;;;;;;12.30;100.00;101661.97;5039409;28;19924;-41
2022/10/13 08:25:24;;;;;;;;;;;;;;;12.36;100.00;101662.38;5037767;28;19920;-40
2022/10/13 08:27:49;;;;;;;;;;;;;;;12.41;100.00;101655.53;5038184;28;20335;-43
2022/10/13 08:30:15;;;;;;;;;;;;;;;12.49;100.00;101657.44;5037643;28;20425;-42
2022/10/13 08:32:40;;;;;;;;;;;;;;;12.57;100.00;101662.88;5026514;28;20312;-40
2022/10/13 08:35:06;;;;;;;;;;;;;;;12.64;100.00;101661.28;5039107;28;19936;-40
2022/10/13 08:37:31;;;;;;;;;;;;;;;12.73;100.00;101658.66;5022085;28;20598;-44
2022/10/13 08:39:56;;;;;;;;;;;;;;;12.82;100.00;101655.06;5035384;28;19916;-48
2022/10/13 08:42:22;;;;;;;;;;;;;;;12.85;100.00;101652.91;5037979;28;19913;-41
2022/10/13 08:44:50;;;;;;;;;;;;;;;12.90;100.00;101657.81;5037888;28;20236;-42
2022/10/13 08:47:34;;;;;;;;;;;;;;;12.92;100.00;101655.78;5036259;28;19978;-44
2022/10/13 08:50:02;;;;;;;;;;;;;;;13.01;100.00;101648.66;5007362;28;20389;-42
2022/10/13 08:52:40;;;;;;;;;;;;;;;13.08;100.00;101649.69;5038662;28;19917;-41
2022/10/13 08:55:10;;;;;;;;;;;;;;;13.15;100.00;101660.63;5037868;28;19921;-39
2022/10/13 08:57:35;;;;;;;;;;;;;;;13.16;100.00;101654.28;5038835;28;19962;-41
2022/10/13 09:00:02;;;;;;;;;;;;;;;13.15;100.00;101655.28;5037962;28;19913;-41
2022/10/13 09:02:30;;;;;;;;;;;;;;;13.15;100.00;101660.63;5037572;28;19932;-43
2022/10/13 09:04:56;;;;;;;;;;;;;;;13.14;100.00;101658.97;5037630;28;19919;-40
2022/10/13 09:07:26;;;;;;;;;;;;;;;13.13;100.00;101651.91;5035246;28;19931;-40
2022/10/13 09:09:52;;;;;;;;;;;;;;;13.11;100.00;101648.56;5036063;28;20642;-40
2022/10/13 09:12:22;;;;;;;;;;;;;;;13.12;100.00;101644.84;5037543;28;19919;-42
2022/10/13 09:15:06;;;;;;;;;;;;;;;13.10;100.00;101644.16;5036741;28;19916;-42
2022/10/13 09:17:32;;;;;;;;;;;;;;;13.10;100.00;101641.50;5033937;28;19998;-43
2022/10/13 09:20:04;;;;;;;;;;;;;;;13.07;100.00;101643.50;5029669;28;19925;-43
2022/10/13 09:22:36;;;;;;;;;;;;;;;13.09;100.00;101637.16;5036809;28;20330;-44
2022/10/13 09:25:10;;;;;;;;;;;;;;;13.13;100.00;101650.06;5033851;28;19921;-41
2022/10/13 09:27:47;;;;;;;;;;;;;;;13.19;100.00;101649.44;5036147;28;20019;-40
2022/10/13 09:30:31;;;;;;;;;;;;;;;13.27;100.00;101647.78;5037019;28;20262;-41
2022/10/13 09:33:10;;;;;;;;;;;;;;;13.36;100.00;101647.72;5036791;28;19923;-43
2022/10/13 09:35:37;;;;;;;;;;;;;;;13.46;100.00;101649.44;5037336;28;19922;-41
2022/10/13 09:38:13;;;;;;;;;;;;;;;13.52;100.00;101646.13;5036945;28;19928;-41
2022/10/13 09:40:39;;;;;;;;;;;;;;;13.60;100.00;101648.84;5034860;28;19917;-41
2022/10/13 09:43:23;;;;;;;;;;;;;;;13.68;100.00;101648.88;5029281;28;19924;-40
2022/10/13 09:45:48;;;;;;;;;;;;;;;13.70;100.00;101638.81;5036498;28;20011;-42
2022/10/13 09:48:18;;;;;;;;;;;;;;;13.71;100.00;101636.97;5036548;28;20368;-41
2022/10/13 09:50:48;;;;;;;;;;;;;;;13.66;100.00;101640.13;5031253;28;20265;-43
2022/10/13 09:53:19;;;;;;;;;;;;;;;13.60;100.00;101638.94;5033457;28;19917;-41
2022/10/13 09:55:47;;;;;;;;;;;;;;;13.48;100.00;101628.66;5036262;28;19927;-40
2022/10/13 09:58:24;;;;;;;;;;;;;;;13.37;100.00;101648.56;5033564;28;19919;-41
2022/10/13 10:00:50;;;;;;;;;;;;;;;13.28;100.00;101639.59;5036414;28;19989;-40
2022/10/13 10:03:22;;;;;;;;;;;;;;;13.22;100.00;101642.91;5036833;28;19913;-42
2022/10/13 10:05:58;;;;;;;;;;;;;;;13.17;100.00;101634.47;5036841;28;19924;-42
2022/10/13 10:08:33;;;;;;;;;;;;;;;13.12;100.00;101632.31;5016958;28;20403;-42
2022/10/13 10:11:03;;;;;;;;;;;;;;;13.09;100.00;101634.47;5030473;28;20840;-43
2022/10/13 10:13:28;;;;;;;;;;;;;;;13.07;100.00;101626.56;5030726;28;20324;-42
2022/10/13 10:15:57;;;;;;;;;;;;;;;13.06;100.00;101624.88;5036519;28;19923;-42
2022/10/13 10:18:31;;;;;;;;;;;;;;;13.06;100.00;101622.19;5036872;28;19924;-41
2022/10/13 10:21:05;;;;;;;;;;;;;;;13.04;100.00;101624.19;5036033;28;20070;-40
2022/10/13 10:23:41;;;;;;;;;;;;;;;12.99;100.00;101622.00;5024418;28;20016;-41
2022/10/13 10:26:30;;;;;;;;;;;;;;;12.96;100.00;101624.97;5033200;28;19920;-43
2022/10/13 10:29:05;;;;;;;;;;;;;;;12.95;100.00;101619.78;5030972;28;20008;-43
2022/10/13 10:31:49;;;;;;;;;;;;;;;12.91;100.00;101629.97;5028214;28;19921;-41
2022/10/13 10:34:29;;;;;;;;;;;;;;;12.88;100.00;101615.06;5030116;28;19959;-41
2022/10/13 10:37:13;;;;;;;;;;;;;;;12.87;100.00;101628.63;5036323;28;19923;-40
2022/10/13 10:39:46;;;;;;;;;;;;;;;12.87;100.00;101624.09;5036051;28;19913;-41
2022/10/13 10:42:31;;;;;;;;;;;;;;;12.90;100.00;101617.59;5036601;28;19917;-40
2022/10/13 10:44:59;;;;;;;;;;;;;;;12.90;100.00;101620.25;5035172;28;19917;-42
2022/10/13 10:47:27;;;;;;;;;;;;;;;12.90;100.00;101620.25;5031882;28;19921;-40
2022/10/13 10:49:54;;;;;;;;;;;;;;;12.91;100.00;101626.47;5036551;28;19977;-40
2022/10/13 10:52:27;;;;;;;;;;;;;;;12.92;100.00;101617.44;5037190;28;19944;-40
2022/10/13 10:54:55;;;;;;;;;;;;;;;12.96;100.00;101619.63;5035727;28;20015;-41
2022/10/13 10:57:20;;;;;;;;;;;;;;;13.02;100.00;101621.69;5032419;28;19913;-40
2022/10/13 10:59:49;;;;;;;;;;;;;;;13.06;100.00;101620.34;5032763;28;19944;-41
2022/10/13 11:02:33;;;;;;;;;;;;;;;13.06;100.00;101616.84;5034501;28;19913;-41
2022/10/13 11:04:58;;;;;;;;;;;;;;;13.03;100.00;101614.47;5028833;28;19936;-41
2022/10/13 11:07:23;;;;;;;;;;;;;;;12.98;100.00;101609.59;5036241;28;19921;-40
2022/10/13 11:09:51;;;;;;;;;;;;;;;12.96;100.00;101608.06;5036979;28;19913;-39
2022/10/13 11:12:20;;;;;;;;;;;;;;;12.95;100.00;101603.69;5040064;28;20380;-40
2022/10/13 11:14:45;;;;;;;;;;;;;;;12.91;100.00;101597.78;5038885;28;20007;-40
2022/10/13 11:17:22;;;;;;;;;;;;;;;12.93;100.00;101587.75;5037235;28;20142;-42
2022/10/13 11:19:48;;;;;;;;;;;;;;;12.92;100.00;101593.31;5039809;28;19913;-40
2022/10/13 11:22:18;;;;;;;;;;;;;;;12.93;100.00;101592.28;5040291;28;19916;-40
2022/10/13 11:24:53;;;;;;;;;;;;;;;12.91;100.00;101587.06;5039477;28;20295;-40
2022/10/13 11:27:33;;;;;;;;;;;;;;;12.91;100.00;101594.28;5031460;28;19921;-40
2022/10/13 11:29:59;;;;;;;;;;;;;;;12.87;100.00;101586.56;5032333;28;19959;-41
2022/10/13 11:32:54;;;;;;;;;;;;;;;12.85;100.00;101583.19;5023607;28;19961;-42
2022/10/13 11:35:10;;;;;;;;;;;;;;;12.86;100.00;101581.34;5026722;28;20273;-41
2022/10/13 11:37:54;;;;;;;;;;;;;;;12.87;100.00;101583.03;5040251;28;19913;-41
2022/10/13 11:40:23;;;;;;;;;;;;;;;12.82;100.00;101578.16;5040142;28;20275;-40
2022/10/13 11:42:55;;;;;;;;;;;;;;;12.83;100.00;101576.28;5038370;28;19920;-40
2022/10/13 11:45:27;;;;;;;;;;;;;;;12.83;100.00;101563.75;5038931;28;19944;-40
2022/10/13 11:48:04;;;;;;;;;;;;;;;12.87;100.00;101558.91;5036976;28;19939;-43
2022/10/13 11:50:32;;;;;;;;;;;;;;;12.94;100.00;101556.44;5031565;28;20321;-40
2022/10/13 11:53:03;;;;;;;;;;;;;;;12.99;100.00;101557.63;5032062;28;20251;-42
2022/10/13 11:55:36;;;;;;;;;;;;;;;13.09;100.00;101570.09;5039223;28;20380;-41
2022/10/13 11:58:06;;;;;;;;;;;;;;;13.16;100.00;101560.41;5037658;28;19920;-43
2022/10/13 12:00:31;;;;;;;;;;;;;;;13.27;100.00;101551.22;5015098;28;19947;-41
2022/10/13 12:02:57;;;;;;;;;;;;;;;13.34;100.00;101552.28;5038213;28;20427;-42
2022/10/13 12:05:24;;;;;;;;;;;;;;;13.39;100.00;101553.50;5038684;28;19921;-43
2022/10/13 12:07:50;;;;;;;;;;;;;;;13.34;100.00;101557.66;5037775;28;19958;-42
2022/10/13 12:10:22;;;;;;;;;;;;;;;13.28;100.00;101552.91;5039771;28;20385;-43
2022/10/13 12:12:48;;;;;;;;;;;;;;;13.22;100.00;101554.38;5034064;28;19920;-42
2022/10/13 12:15:27;;;;;;;;;;;;;;;13.15;100.00;101551.53;5033392;28;19912;-41
2022/10/13 12:17:52;;;;;;;;;;;;;;;13.13;100.00;101553.50;5038035;28;19991;-41
2022/10/13 12:20:22;;;;;;;;;;;;;;;13.15;100.00;101547.97;5038898;28;20379;-41
2022/10/13 12:22:48;;;;;;;;;;;;;;;13.23;100.00;101548.03;5020240;28;20468;-41
2022/10/13 12:25:18;;;;;;;;;;;;;;;13.28;100.00;101548.38;5038883;28;20007;-40
2022/10/13 12:27:45;;;;;;;;;;;;;;;13.32;100.00;101552.44;5038218;28;19921;-44
2022/10/13 12:30:22;;;;;;;;;;;;;;;13.36;100.00;101545.78;5039075;28;19913;-42
2022/10/13 12:32:49;;;;;;;;;;;;;;;13.42;100.00;101538.91;5026590;28;20016;-43